sensor_id;sensor_type;location;lat;lon;timestamp;temperature;humidity
74178;DHT22;62540;48.456;-4.456;2024-03-02T00:01:03;8.20;76.17
74178;DHT22;62540;48.456;-4.456;2024-03-02T00:03:29;8.20;76.30
74178;DHT22;62540;48.456;-4.456;2024-03-02T00:05:54;8.23;76.69
74178;DHT22;62540;48.456;-4.456;2024-03-02T00:08:23;8.21;76.93
74178;DHT22;62540;48.456;-4.456;2024-03-02T00:10:57;8.23;76.31
74178;DHT22;62540;48.456;-4.456;2024-03-02T00:13:23;8.20;76.10
74178;DHT22;62540;48.456;-4.456;2024-03-02T00:15:54;8.24;75.75
74178;DHT22;62540;48.456;-4.456;2024-03-02T00:18:26;8.24;75.52
74178;DHT22;62540;48.456;-4.456;2024-03-02T00:20:54;8.16;75.04
74178;DHT22;62540;48.456;-4.456;2024-03-02T00:23:20;8.21;74.98
74178;DHT22;62540;48.456;-4.456;2024-03-02T00:25:49;8.23;74.87
74178;DHT22;62540;48.456;-4.456;2024-03-02T00:28:31;8.27;74.68
74178;DHT22;62540;48.456;-4.456;2024-03-02T00:31:09;8.29;74.50
74178;DHT22;62540;48.456;-4.456;2024-03-02T00:33:41;8.33;74.24
74178;DHT22;62540;48.456;-4.456;2024-03-02T00:36:07;8.27;73.90
74178;DHT22;62540;48.456;-4.456;2024-03-02T00:38:34;8.16;73.93
74178;DHT22;62540;48.456;-4.456;2024-03-02T00:41:06;8.13;74.13
74178;DHT22;62540;48.456;-4.456;2024-03-02T00:43:47;8.06;73.84
74178;DHT22;62540;48.456;-4.456;2024-03-02T00:46:20;8.03;73.98
74178;DHT22;62540;48.456;-4.456;2024-03-02T00:49:00;8.02;73.87
74178;DHT22;62540;48.456;-4.456;2024-03-02T00:51:26;8.03;73.86
74178;DHT22;62540;48.456;-4.456;2024-03-02T00:53:53;8.03;73.75
74178;DHT22;62540;48.456;-4.456;2024-03-02T00:56:23;8.09;73.72
74178;DHT22;62540;48.456;-4.456;2024-03-02T00:58:49;8.09;73.67
74178;DHT22;62540;48.456;-4.456;2024-03-02T01:01:14;8.04;73.68
74178;DHT22;62540;48.456;-4.456;2024-03-02T01:03:41;8.04;73.83
74178;DHT22;62540;48.456;-4.456;2024-03-02T01:06:07;8.04;73.97
74178;DHT22;62540;48.456;-4.456;2024-03-02T01:08:36;8.00;74.40
74178;DHT22;62540;48.456;-4.456;2024-03-02T01:11:02;8.00;74.52
74178;DHT22;62540;48.456;-4.456;2024-03-02T01:13:28;8.02;74.57
74178;DHT22;62540;48.456;-4.456;2024-03-02T01:15:54;8.07;74.65
74178;DHT22;62540;48.456;-4.456;2024-03-02T01:18:19;8.07;74.72
74178;DHT22;62540;48.456;-4.456;2024-03-02T01:20:45;8.07;74.74
74178;DHT22;62540;48.456;-4.456;2024-03-02T01:23:11;8.04;74.90
74178;DHT22;62540;48.456;-4.456;2024-03-02T01:25:36;8.09;74.85
74178;DHT22;62540;48.456;-4.456;2024-03-02T01:28:02;8.04;74.85
74178;DHT22;62540;48.456;-4.456;2024-03-02T01:30:27;8.07;74.92
74178;DHT22;62540;48.456;-4.456;2024-03-02T01:32:53;8.07;74.87
74178;DHT22;62540;48.456;-4.456;2024-03-02T01:35:18;8.13;74.77
74178;DHT22;62540;48.456;-4.456;2024-03-02T01:37:43;8.14;74.65
74178;DHT22;62540;48.456;-4.456;2024-03-02T01:40:10;8.09;74.67
74178;DHT22;62540;48.456;-4.456;2024-03-02T01:42:36;8.09;74.88
74178;DHT22;62540;48.456;-4.456;2024-03-02T01:45:06;8.13;74.55
74178;DHT22;62540;48.456;-4.456;2024-03-02T01:47:32;8.12;74.07
74178;DHT22;62540;48.456;-4.456;2024-03-02T01:49:58;8.10;74.01
74178;DHT22;62540;48.456;-4.456;2024-03-02T01:52:24;8.10;73.85
74178;DHT22;62540;48.456;-4.456;2024-03-02T01:54:49;8.13;73.56
74178;DHT22;62540;48.456;-4.456;2024-03-02T01:57:15;8.16;73.35
74178;DHT22;62540;48.456;-4.456;2024-03-02T01:59:41;8.17;73.32
74178;DHT22;62540;48.456;-4.456;2024-03-02T02:02:07;8.17;73.17
74178;DHT22;62540;48.456;-4.456;2024-03-02T02:04:32;8.13;73.23
74178;DHT22;62540;48.456;-4.456;2024-03-02T02:06:58;8.14;73.44
74178;DHT22;62540;48.456;-4.456;2024-03-02T02:09:24;8.16;73.44
74178;DHT22;62540;48.456;-4.456;2024-03-02T02:11:50;8.17;73.51
74178;DHT22;62540;48.456;-4.456;2024-03-02T02:14:16;8.14;73.63
74178;DHT22;62540;48.456;-4.456;2024-03-02T02:16:41;8.17;73.71
74178;DHT22;62540;48.456;-4.456;2024-03-02T02:19:07;8.16;73.94
74178;DHT22;62540;48.456;-4.456;2024-03-02T02:21:33;8.20;74.19
74178;DHT22;62540;48.456;-4.456;2024-03-02T02:23:58;8.16;74.39
74178;DHT22;62540;48.456;-4.456;2024-03-02T02:26:24;8.09;74.56
74178;DHT22;62540;48.456;-4.456;2024-03-02T02:28:50;8.02;74.97
74178;DHT22;62540;48.456;-4.456;2024-03-02T02:31:16;7.92;75.40
74178;DHT22;62540;48.456;-4.456;2024-03-02T02:33:42;7.87;75.56
74178;DHT22;62540;48.456;-4.456;2024-03-02T02:36:08;7.89;75.51
74178;DHT22;62540;48.456;-4.456;2024-03-02T02:38:38;7.89;75.32
74178;DHT22;62540;48.456;-4.456;2024-03-02T02:41:05;7.85;74.93
74178;DHT22;62540;48.456;-4.456;2024-03-02T02:43:30;7.85;74.73
74178;DHT22;62540;48.456;-4.456;2024-03-02T02:45:56;7.82;74.51
74178;DHT22;62540;48.456;-4.456;2024-03-02T02:48:21;7.87;74.47
74178;DHT22;62540;48.456;-4.456;2024-03-02T02:50:46;7.94;74.25
74178;DHT22;62540;48.456;-4.456;2024-03-02T02:53:12;7.94;73.90
74178;DHT22;62540;48.456;-4.456;2024-03-02T02:55:39;7.97;73.84
74178;DHT22;62540;48.456;-4.456;2024-03-02T02:58:07;8.02;73.63
74178;DHT22;62540;48.456;-4.456;2024-03-02T03:00:32;8.03;73.56
74178;DHT22;62540;48.456;-4.456;2024-03-02T03:02:58;8.07;73.41
74178;DHT22;62540;48.456;-4.456;2024-03-02T03:05:23;8.12;73.29
74178;DHT22;62540;48.456;-4.456;2024-03-02T03:07:49;8.13;73.26
74178;DHT22;62540;48.456;-4.456;2024-03-02T03:10:15;8.07;73.08
74178;DHT22;62540;48.456;-4.456;2024-03-02T03:12:41;7.92;72.75
74178;DHT22;62540;48.456;-4.456;2024-03-02T03:15:08;7.76;72.90
74178;DHT22;62540;48.456;-4.456;2024-03-02T03:17:34;7.69;73.27
74178;DHT22;62540;48.456;-4.456;2024-03-02T03:20:01;7.64;73.48
74178;DHT22;62540;48.456;-4.456;2024-03-02T03:22:26;7.65;73.64
74178;DHT22;62540;48.456;-4.456;2024-03-02T03:24:52;7.66;73.78
74178;DHT22;62540;48.456;-4.456;2024-03-02T03:27:18;7.66;73.96
74178;DHT22;62540;48.456;-4.456;2024-03-02T03:29:45;7.69;73.98
74178;DHT22;62540;48.456;-4.456;2024-03-02T03:32:10;7.69;74.11
74178;DHT22;62540;48.456;-4.456;2024-03-02T03:34:36;7.69;74.48
74178;DHT22;62540;48.456;-4.456;2024-03-02T03:37:02;7.69;74.56
74178;DHT22;62540;48.456;-4.456;2024-03-02T03:39:27;7.71;74.55
74178;DHT22;62540;48.456;-4.456;2024-03-02T03:41:54;7.71;74.63
74178;DHT22;62540;48.456;-4.456;2024-03-02T03:44:19;7.71;74.63
74178;DHT22;62540;48.456;-4.456;2024-03-02T03:46:45;7.73;74.50
74178;DHT22;62540;48.456;-4.456;2024-03-02T03:49:11;7.79;74.37
74178;DHT22;62540;48.456;-4.456;2024-03-02T03:51:36;7.81;74.23
74178;DHT22;62540;48.456;-4.456;2024-03-02T03:54:01;7.86;74.04
74178;DHT22;62540;48.456;-4.456;2024-03-02T03:56:27;7.83;74.00
74178;DHT22;62540;48.456;-4.456;2024-03-02T03:58:52;7.87;74.03
74178;DHT22;62540;48.456;-4.456;2024-03-02T04:01:18;7.86;74.09
74178;DHT22;62540;48.456;-4.456;2024-03-02T04:03:43;7.87;74.20
74178;DHT22;62540;48.456;-4.456;2024-03-02T04:06:09;7.87;74.30
74178;DHT22;62540;48.456;-4.456;2024-03-02T04:08:34;7.94;74.31
74178;DHT22;62540;48.456;-4.456;2024-03-02T04:11:00;7.99;74.32
74178;DHT22;62540;48.456;-4.456;2024-03-02T04:13:25;7.97;74.44
74178;DHT22;62540;48.456;-4.456;2024-03-02T04:15:51;7.96;74.48
74178;DHT22;62540;48.456;-4.456;2024-03-02T04:18:16;7.94;74.86
74178;DHT22;62540;48.456;-4.456;2024-03-02T04:20:42;7.87;74.76
74178;DHT22;62540;48.456;-4.456;2024-03-02T04:23:07;7.85;74.90
74178;DHT22;62540;48.456;-4.456;2024-03-02T04:25:33;7.81;75.06
74178;DHT22;62540;48.456;-4.456;2024-03-02T04:27:58;7.81;75.19
74178;DHT22;62540;48.456;-4.456;2024-03-02T04:30:24;7.81;75.42
74178;DHT22;62540;48.456;-4.456;2024-03-02T04:32:50;7.81;75.29
74178;DHT22;62540;48.456;-4.456;2024-03-02T04:35:16;7.85;75.31
74178;DHT22;62540;48.456;-4.456;2024-03-02T04:37:41;7.90;75.24
74178;DHT22;62540;48.456;-4.456;2024-03-02T04:40:07;7.94;75.26
74178;DHT22;62540;48.456;-4.456;2024-03-02T04:42:36;8.02;75.10
74178;DHT22;62540;48.456;-4.456;2024-03-02T04:45:02;8.07;74.82
74178;DHT22;62540;48.456;-4.456;2024-03-02T04:47:27;8.12;74.61
74178;DHT22;62540;48.456;-4.456;2024-03-02T04:49:53;8.13;74.42
74178;DHT22;62540;48.456;-4.456;2024-03-02T04:52:19;8.19;74.35
74178;DHT22;62540;48.456;-4.456;2024-03-02T04:54:44;8.19;74.24
74178;DHT22;62540;48.456;-4.456;2024-03-02T04:57:28;8.21;74.35
74178;DHT22;62540;48.456;-4.456;2024-03-02T04:59:53;8.24;74.43
74178;DHT22;62540;48.456;-4.456;2024-03-02T05:02:19;8.24;74.45
74178;DHT22;62540;48.456;-4.456;2024-03-02T05:04:44;8.31;74.33
74178;DHT22;62540;48.456;-4.456;2024-03-02T05:07:10;8.31;74.24
74178;DHT22;62540;48.456;-4.456;2024-03-02T05:09:35;8.30;74.33
74178;DHT22;62540;48.456;-4.456;2024-03-02T05:12:01;8.27;74.43
74178;DHT22;62540;48.456;-4.456;2024-03-02T05:14:46;8.26;74.51
74178;DHT22;62540;48.456;-4.456;2024-03-02T05:17:11;8.17;74.80
74178;DHT22;62540;48.456;-4.456;2024-03-02T05:19:36;8.13;74.70
74178;DHT22;62540;48.456;-4.456;2024-03-02T05:22:02;8.04;74.86
74178;DHT22;62540;48.456;-4.456;2024-03-02T05:24:28;8.00;74.98
74178;DHT22;62540;48.456;-4.456;2024-03-02T05:26:54;7.97;75.10
74178;DHT22;62540;48.456;-4.456;2024-03-02T05:29:19;7.99;75.23
74178;DHT22;62540;48.456;-4.456;2024-03-02T05:31:44;8.03;75.18
74178;DHT22;62540;48.456;-4.456;2024-03-02T05:34:10;8.04;75.12
74178;DHT22;62540;48.456;-4.456;2024-03-02T05:36:35;8.02;75.32
74178;DHT22;62540;48.456;-4.456;2024-03-02T05:39:01;7.99;75.63
74178;DHT22;62540;48.456;-4.456;2024-03-02T05:41:29;7.99;75.96
74178;DHT22;62540;48.456;-4.456;2024-03-02T05:43:55;7.93;76.11
74178;DHT22;62540;48.456;-4.456;2024-03-02T05:46:20;7.94;75.94
74178;DHT22;62540;48.456;-4.456;2024-03-02T05:48:46;7.92;75.73
74178;DHT22;62540;48.456;-4.456;2024-03-02T05:51:11;7.97;75.71
74178;DHT22;62540;48.456;-4.456;2024-03-02T05:53:36;7.99;75.73
74178;DHT22;62540;48.456;-4.456;2024-03-02T05:56:04;8.00;75.62
74178;DHT22;62540;48.456;-4.456;2024-03-02T05:58:29;8.04;75.47
74178;DHT22;62540;48.456;-4.456;2024-03-02T06:01:13;8.10;75.43
74178;DHT22;62540;48.456;-4.456;2024-03-02T06:03:38;8.13;75.32
74178;DHT22;62540;48.456;-4.456;2024-03-02T06:06:04;8.23;75.27
74178;DHT22;62540;48.456;-4.456;2024-03-02T06:08:29;8.30;75.07
74178;DHT22;62540;48.456;-4.456;2024-03-02T06:10:54;8.34;74.89
74178;DHT22;62540;48.456;-4.456;2024-03-02T06:13:21;8.36;74.82
74178;DHT22;62540;48.456;-4.456;2024-03-02T06:15:46;8.38;74.64
74178;DHT22;62540;48.456;-4.456;2024-03-02T06:18:12;8.38;74.47
74178;DHT22;62540;48.456;-4.456;2024-03-02T06:20:37;8.38;74.26
74178;DHT22;62540;48.456;-4.456;2024-03-02T06:23:03;8.34;74.04
74178;DHT22;62540;48.456;-4.456;2024-03-02T06:25:29;8.27;73.92
74178;DHT22;62540;48.456;-4.456;2024-03-02T06:27:54;8.23;73.93
74178;DHT22;62540;48.456;-4.456;2024-03-02T06:30:20;8.21;73.92
74178;DHT22;62540;48.456;-4.456;2024-03-02T06:32:45;8.21;73.82
74178;DHT22;62540;48.456;-4.456;2024-03-02T06:35:11;8.17;73.65
74178;DHT22;62540;48.456;-4.456;2024-03-02T06:37:38;8.12;73.60
74178;DHT22;62540;48.456;-4.456;2024-03-02T06:40:05;8.12;73.54
74178;DHT22;62540;48.456;-4.456;2024-03-02T06:42:33;8.09;73.34
74178;DHT22;62540;48.456;-4.456;2024-03-02T06:44:58;8.02;73.03
74178;DHT22;62540;48.456;-4.456;2024-03-02T06:47:24;7.94;73.13
74178;DHT22;62540;48.456;-4.456;2024-03-02T06:49:49;7.92;73.18
74178;DHT22;62540;48.456;-4.456;2024-03-02T06:52:16;7.85;72.76
74178;DHT22;62540;48.456;-4.456;2024-03-02T06:54:41;7.82;72.97
74178;DHT22;62540;48.456;-4.456;2024-03-02T06:57:06;7.78;72.85
74178;DHT22;62540;48.456;-4.456;2024-03-02T06:59:32;7.75;72.95
74178;DHT22;62540;48.456;-4.456;2024-03-02T07:01:58;7.75;73.08
74178;DHT22;62540;48.456;-4.456;2024-03-02T07:04:24;7.71;72.94
74178;DHT22;62540;48.456;-4.456;2024-03-02T07:06:49;7.71;72.86
74178;DHT22;62540;48.456;-4.456;2024-03-02T07:09:16;7.73;72.92
74178;DHT22;62540;48.456;-4.456;2024-03-02T07:11:41;7.66;72.66
74178;DHT22;62540;48.456;-4.456;2024-03-02T07:14:07;7.62;72.98
74178;DHT22;62540;48.456;-4.456;2024-03-02T07:16:32;7.71;73.07
74178;DHT22;62540;48.456;-4.456;2024-03-02T07:18:59;7.76;73.01
74178;DHT22;62540;48.456;-4.456;2024-03-02T07:21:27;7.78;73.05
74178;DHT22;62540;48.456;-4.456;2024-03-02T07:23:53;7.89;72.89
74178;DHT22;62540;48.456;-4.456;2024-03-02T07:26:19;7.94;72.77
74178;DHT22;62540;48.456;-4.456;2024-03-02T07:28:48;7.99;72.57
74178;DHT22;62540;48.456;-4.456;2024-03-02T07:31:14;8.04;72.46
74178;DHT22;62540;48.456;-4.456;2024-03-02T07:33:40;8.19;72.43
74178;DHT22;62540;48.456;-4.456;2024-03-02T07:36:07;8.30;72.33
74178;DHT22;62540;48.456;-4.456;2024-03-02T07:38:33;8.44;72.06
74178;DHT22;62540;48.456;-4.456;2024-03-02T07:41:00;8.54;71.97
74178;DHT22;62540;48.456;-4.456;2024-03-02T07:43:26;8.69;71.69
74178;DHT22;62540;48.456;-4.456;2024-03-02T07:45:51;8.78;71.42
74178;DHT22;62540;48.456;-4.456;2024-03-02T07:48:17;8.86;71.29
74178;DHT22;62540;48.456;-4.456;2024-03-02T07:50:42;8.96;71.18
74178;DHT22;62540;48.456;-4.456;2024-03-02T07:53:08;9.13;71.04
74178;DHT22;62540;48.456;-4.456;2024-03-02T07:55:34;9.34;71.03
74178;DHT22;62540;48.456;-4.456;2024-03-02T07:58:02;9.61;70.75
74178;DHT22;62540;48.456;-4.456;2024-03-02T08:00:28;9.94;70.32
74178;DHT22;62540;48.456;-4.456;2024-03-02T08:02:53;10.23;69.82
74178;DHT22;62540;48.456;-4.456;2024-03-02T08:05:20;10.56;69.27
74178;DHT22;62540;48.456;-4.456;2024-03-02T08:07:46;10.90;68.80
74178;DHT22;62540;48.456;-4.456;2024-03-02T08:10:12;11.21;68.33
74178;DHT22;62540;48.456;-4.456;2024-03-02T08:12:38;11.53;67.99
74178;DHT22;62540;48.456;-4.456;2024-03-02T08:15:04;11.82;67.40
74178;DHT22;62540;48.456;-4.456;2024-03-02T08:17:30;12.13;67.09
74178;DHT22;62540;48.456;-4.456;2024-03-02T08:19:55;12.42;66.77
74178;DHT22;62540;48.456;-4.456;2024-03-02T08:22:22;12.69;66.29
74178;DHT22;62540;48.456;-4.456;2024-03-02T08:24:47;12.99;65.88
74178;DHT22;62540;48.456;-4.456;2024-03-02T08:27:13;13.28;65.65
74178;DHT22;62540;48.456;-4.456;2024-03-02T08:29:38;13.53;65.14
74178;DHT22;62540;48.456;-4.456;2024-03-02T08:32:05;13.83;64.72
74178;DHT22;62540;48.456;-4.456;2024-03-02T08:34:30;14.09;63.86
74178;DHT22;62540;48.456;-4.456;2024-03-02T08:36:56;14.34;63.31
74178;DHT22;62540;48.456;-4.456;2024-03-02T08:39:21;14.63;62.79
74178;DHT22;62540;48.456;-4.456;2024-03-02T08:41:47;14.84;62.48
74178;DHT22;62540;48.456;-4.456;2024-03-02T08:44:13;14.97;60.11
74178;DHT22;62540;48.456;-4.456;2024-03-02T08:46:39;15.11;60.68
74178;DHT22;62540;48.456;-4.456;2024-03-02T08:49:05;15.31;60.75
74178;DHT22;62540;48.456;-4.456;2024-03-02T08:51:31;15.49;59.19
74178;DHT22;62540;48.456;-4.456;2024-03-02T08:53:57;15.66;59.50
74178;DHT22;62540;48.456;-4.456;2024-03-02T08:56:23;15.80;58.69
74178;DHT22;62540;48.456;-4.456;2024-03-02T08:58:50;15.89;58.98
74178;DHT22;62540;48.456;-4.456;2024-03-02T09:01:16;15.90;57.91
74178;DHT22;62540;48.456;-4.456;2024-03-02T09:03:42;15.90;57.82
74178;DHT22;62540;48.456;-4.456;2024-03-02T09:06:12;15.89;57.74
74178;DHT22;62540;48.456;-4.456;2024-03-02T09:08:37;15.97;58.39
74178;DHT22;62540;48.456;-4.456;2024-03-02T09:11:04;16.03;55.98
74178;DHT22;62540;48.456;-4.456;2024-03-02T09:13:30;16.17;56.02
74178;DHT22;62540;48.456;-4.456;2024-03-02T09:15:56;16.15;56.79
74178;DHT22;62540;48.456;-4.456;2024-03-02T09:18:21;16.31;57.27
74178;DHT22;62540;48.456;-4.456;2024-03-02T09:20:47;16.48;57.19
74178;DHT22;62540;48.456;-4.456;2024-03-02T09:23:12;16.76;57.64
74178;DHT22;62540;48.456;-4.456;2024-03-02T09:25:38;16.93;54.86
74178;DHT22;62540;48.456;-4.456;2024-03-02T09:28:03;17.02;56.50
74178;DHT22;62540;48.456;-4.456;2024-03-02T09:30:29;16.94;55.32
74178;DHT22;62540;48.456;-4.456;2024-03-02T09:32:54;16.96;53.28
74178;DHT22;62540;48.456;-4.456;2024-03-02T09:35:20;16.94;54.28
74178;DHT22;62540;48.456;-4.456;2024-03-02T09:37:45;17.04;55.85
74178;DHT22;62540;48.456;-4.456;2024-03-02T09:40:11;17.13;55.49
74178;DHT22;62540;48.456;-4.456;2024-03-02T09:42:37;17.19;52.64
74178;DHT22;62540;48.456;-4.456;2024-03-02T09:45:03;16.80;53.50
74178;DHT22;62540;48.456;-4.456;2024-03-02T09:47:28;16.28;53.16
74178;DHT22;62540;48.456;-4.456;2024-03-02T09:49:54;15.74;53.02
74178;DHT22;62540;48.456;-4.456;2024-03-02T09:52:22;15.47;55.07
74178;DHT22;62540;48.456;-4.456;2024-03-02T09:54:47;15.45;54.88
74178;DHT22;62540;48.456;-4.456;2024-03-02T09:57:14;15.54;54.23
74178;DHT22;62540;48.456;-4.456;2024-03-02T09:59:39;15.63;53.85
74178;DHT22;62540;48.456;-4.456;2024-03-02T10:02:05;15.77;54.65
74178;DHT22;62540;48.456;-4.456;2024-03-02T10:04:33;16.07;54.22
74178;DHT22;62540;48.456;-4.456;2024-03-02T10:07:19;16.29;53.09
74178;DHT22;62540;48.456;-4.456;2024-03-02T10:09:46;16.47;52.31
74178;DHT22;62540;48.456;-4.456;2024-03-02T10:12:13;16.75;52.30
74178;DHT22;62540;48.456;-4.456;2024-03-02T10:14:39;16.90;52.56
74178;DHT22;62540;48.456;-4.456;2024-03-02T10:17:09;16.90;51.88
74178;DHT22;62540;48.456;-4.456;2024-03-02T10:19:35;16.84;51.13
74178;DHT22;62540;48.456;-4.456;2024-03-02T10:22:03;16.96;51.43
74178;DHT22;62540;48.456;-4.456;2024-03-02T10:24:37;17.11;50.63
74178;DHT22;62540;48.456;-4.456;2024-03-02T10:27:25;17.24;51.40
74178;DHT22;62540;48.456;-4.456;2024-03-02T10:29:51;17.55;51.20
74178;DHT22;62540;48.456;-4.456;2024-03-02T10:32:17;17.82;53.06
74178;DHT22;62540;48.456;-4.456;2024-03-02T10:34:46;18.14;52.25
74178;DHT22;62540;48.456;-4.456;2024-03-02T10:37:13;18.53;50.46
74178;DHT22;62540;48.456;-4.456;2024-03-02T10:39:39;18.68;51.93
74178;DHT22;62540;48.456;-4.456;2024-03-02T10:42:06;18.67;50.34
74178;DHT22;62540;48.456;-4.456;2024-03-02T10:44:32;18.32;51.74
74178;DHT22;62540;48.456;-4.456;2024-03-02T10:47:03;16.93;51.39
74178;DHT22;62540;48.456;-4.456;2024-03-02T10:49:30;15.94;53.50
74178;DHT22;62540;48.456;-4.456;2024-03-02T10:51:59;14.87;56.03
74178;DHT22;62540;48.456;-4.456;2024-03-02T10:54:25;14.50;56.98
74178;DHT22;62540;48.456;-4.456;2024-03-02T10:56:58;14.12;57.71
74178;DHT22;62540;48.456;-4.456;2024-03-02T10:59:33;13.78;58.07
74178;DHT22;62540;48.456;-4.456;2024-03-02T11:02:01;13.60;58.61
74178;DHT22;62540;48.456;-4.456;2024-03-02T11:04:28;13.44;59.12
74178;DHT22;62540;48.456;-4.456;2024-03-02T11:07:04;13.11;60.07
74178;DHT22;62540;48.456;-4.456;2024-03-02T11:09:33;12.95;60.60
74178;DHT22;62540;48.456;-4.456;2024-03-02T11:12:23;12.97;60.91
74178;DHT22;62540;48.456;-4.456;2024-03-02T11:14:50;13.00;61.05
74178;DHT22;62540;48.456;-4.456;2024-03-02T11:17:18;13.10;61.42
74178;DHT22;62540;48.456;-4.456;2024-03-02T11:19:44;13.16;61.51
74178;DHT22;62540;48.456;-4.456;2024-03-02T11:22:11;12.96;61.09
74178;DHT22;62540;48.456;-4.456;2024-03-02T11:24:37;12.95;61.28
74178;DHT22;62540;48.456;-4.456;2024-03-02T11:27:04;12.99;61.51
74178;DHT22;62540;48.456;-4.456;2024-03-02T11:32:13;13.54;61.86
74178;DHT22;62540;48.456;-4.456;2024-03-02T11:34:41;14.02;60.69
74178;DHT22;62540;48.456;-4.456;2024-03-02T11:37:11;14.51;61.36
74178;DHT22;62540;48.456;-4.456;2024-03-02T11:39:38;15.09;60.34
74178;DHT22;62540;48.456;-4.456;2024-03-02T11:42:08;15.42;58.94
74178;DHT22;62540;48.456;-4.456;2024-03-02T11:44:35;15.80;59.14
74178;DHT22;62540;48.456;-4.456;2024-03-02T11:47:02;15.87;57.89
74178;DHT22;62540;48.456;-4.456;2024-03-02T11:49:49;15.54;57.41
74178;DHT22;62540;48.456;-4.456;2024-03-02T11:52:15;15.09;58.32
74178;DHT22;62540;48.456;-4.456;2024-03-02T11:54:44;14.73;58.30
74178;DHT22;62540;48.456;-4.456;2024-03-02T11:57:15;14.54;59.50
74178;DHT22;62540;48.456;-4.456;2024-03-02T11:59:41;14.46;60.32
74178;DHT22;62540;48.456;-4.456;2024-03-02T12:02:06;14.41;60.02
74178;DHT22;62540;48.456;-4.456;2024-03-02T12:04:32;14.39;59.83
74178;DHT22;62540;48.456;-4.456;2024-03-02T12:06:59;14.32;60.02
74178;DHT22;62540;48.456;-4.456;2024-03-02T12:09:28;14.13;59.51
74178;DHT22;62540;48.456;-4.456;2024-03-02T12:14:30;13.60;60.06
74178;DHT22;62540;48.456;-4.456;2024-03-02T12:16:55;13.65;60.80
74178;DHT22;62540;48.456;-4.456;2024-03-02T12:19:21;13.92;60.96
74178;DHT22;62540;48.456;-4.456;2024-03-02T12:21:47;14.22;60.77
74178;DHT22;62540;48.456;-4.456;2024-03-02T12:24:12;14.54;59.46
74178;DHT22;62540;48.456;-4.456;2024-03-02T12:26:38;14.85;58.83
74178;DHT22;62540;48.456;-4.456;2024-03-02T12:29:04;15.04;58.08
74178;DHT22;62540;48.456;-4.456;2024-03-02T12:31:30;15.25;57.91
74178;DHT22;62540;48.456;-4.456;2024-03-02T12:33:55;15.08;55.01
74178;DHT22;62540;48.456;-4.456;2024-03-02T12:36:22;15.19;56.74
74178;DHT22;62540;48.456;-4.456;2024-03-02T12:38:47;15.33;57.65
74178;DHT22;62540;48.456;-4.456;2024-03-02T12:41:16;15.43;56.88
74178;DHT22;62540;48.456;-4.456;2024-03-02T12:43:42;15.22;58.40
74178;DHT22;62540;48.456;-4.456;2024-03-02T12:46:07;14.95;59.26
74178;DHT22;62540;48.456;-4.456;2024-03-02T12:48:34;14.44;57.83
74178;DHT22;62540;48.456;-4.456;2024-03-02T12:51:00;14.08;59.45
74178;DHT22;62540;48.456;-4.456;2024-03-02T12:53:25;13.97;60.40
74178;DHT22;62540;48.456;-4.456;2024-03-02T12:55:51;13.99;60.49
74178;DHT22;62540;48.456;-4.456;2024-03-02T12:58:18;13.95;60.61
74178;DHT22;62540;48.456;-4.456;2024-03-02T13:00:44;13.85;61.24
74178;DHT22;62540;48.456;-4.456;2024-03-02T13:03:09;13.77;61.17
74178;DHT22;62540;48.456;-4.456;2024-03-02T13:05:35;13.64;60.44
74178;DHT22;62540;48.456;-4.456;2024-03-02T13:08:02;13.50;61.48
74178;DHT22;62540;48.456;-4.456;2024-03-02T13:10:28;13.55;62.40
74178;DHT22;62540;48.456;-4.456;2024-03-02T13:12:54;13.53;62.48
74178;DHT22;62540;48.456;-4.456;2024-03-02T13:15:21;13.41;62.71
74178;DHT22;62540;48.456;-4.456;2024-03-02T13:17:46;13.23;61.81
74178;DHT22;62540;48.456;-4.456;2024-03-02T13:20:11;13.17;62.96
74178;DHT22;62540;48.456;-4.456;2024-03-02T13:22:39;13.26;63.13
74178;DHT22;62540;48.456;-4.456;2024-03-02T13:25:05;13.20;62.13
74178;DHT22;62540;48.456;-4.456;2024-03-02T13:27:31;13.24;63.05
74178;DHT22;62540;48.456;-4.456;2024-03-02T13:29:59;13.24;63.33
74178;DHT22;62540;48.456;-4.456;2024-03-02T13:32:25;13.14;63.58
74178;DHT22;62540;48.456;-4.456;2024-03-02T13:34:51;12.97;64.30
74178;DHT22;62540;48.456;-4.456;2024-03-02T13:37:16;12.83;64.16
74178;DHT22;62540;48.456;-4.456;2024-03-02T13:39:42;12.99;63.39
74178;DHT22;62540;48.456;-4.456;2024-03-02T13:42:08;13.03;62.34
74178;DHT22;62540;48.456;-4.456;2024-03-02T13:44:34;12.86;61.29
74178;DHT22;62540;48.456;-4.456;2024-03-02T13:47:00;12.75;61.56
74178;DHT22;62540;48.456;-4.456;2024-03-02T13:49:26;12.92;61.71
74178;DHT22;62540;48.456;-4.456;2024-03-02T13:52:05;13.20;60.45
74178;DHT22;62540;48.456;-4.456;2024-03-02T13:54:46;13.34;59.68
74178;DHT22;62540;48.456;-4.456;2024-03-02T13:57:12;13.43;59.97
74178;DHT22;62540;48.456;-4.456;2024-03-02T13:59:38;13.17;62.02
74178;DHT22;62540;48.456;-4.456;2024-03-02T14:02:05;13.04;62.11
74178;DHT22;62540;48.456;-4.456;2024-03-02T14:04:34;12.88;63.47
74178;DHT22;62540;48.456;-4.456;2024-03-02T14:07:00;12.69;63.90
74178;DHT22;62540;48.456;-4.456;2024-03-02T14:09:26;12.56;64.99
74178;DHT22;62540;48.456;-4.456;2024-03-02T14:11:52;12.38;65.20
74178;DHT22;62540;48.456;-4.456;2024-03-02T14:14:18;12.51;65.32
74178;DHT22;62540;48.456;-4.456;2024-03-02T14:16:44;12.65;63.90
74178;DHT22;62540;48.456;-4.456;2024-03-02T14:19:12;12.79;63.34
74178;DHT22;62540;48.456;-4.456;2024-03-02T14:21:38;12.95;62.66
74178;DHT22;62540;48.456;-4.456;2024-03-02T14:24:04;13.06;62.63
74178;DHT22;62540;48.456;-4.456;2024-03-02T14:26:32;13.04;61.98
74178;DHT22;62540;48.456;-4.456;2024-03-02T14:28:58;12.79;62.49
74178;DHT22;62540;48.456;-4.456;2024-03-02T14:31:24;12.69;62.35
74178;DHT22;62540;48.456;-4.456;2024-03-02T14:33:50;12.61;62.92
74178;DHT22;62540;48.456;-4.456;2024-03-02T14:36:16;12.61;64.00
74178;DHT22;62540;48.456;-4.456;2024-03-02T14:38:41;12.66;63.97
74178;DHT22;62540;48.456;-4.456;2024-03-02T14:41:07;12.68;62.53
74178;DHT22;62540;48.456;-4.456;2024-03-02T14:43:32;12.69;62.83
74178;DHT22;62540;48.456;-4.456;2024-03-02T14:45:58;12.63;62.79
74178;DHT22;62540;48.456;-4.456;2024-03-02T14:48:24;12.73;62.50
74178;DHT22;62540;48.456;-4.456;2024-03-02T14:50:50;12.73;62.07
74178;DHT22;62540;48.456;-4.456;2024-03-02T14:53:16;12.83;62.57
74178;DHT22;62540;48.456;-4.456;2024-03-02T14:55:41;12.88;62.44
74178;DHT22;62540;48.456;-4.456;2024-03-02T14:58:07;12.85;61.83
74178;DHT22;62540;48.456;-4.456;2024-03-02T15:00:33;12.75;61.81
74178;DHT22;62540;48.456;-4.456;2024-03-02T15:02:59;12.72;61.83
74178;DHT22;62540;48.456;-4.456;2024-03-02T15:05:24;12.73;62.14
74178;DHT22;62540;48.456;-4.456;2024-03-02T15:07:51;12.66;62.16
74178;DHT22;62540;48.456;-4.456;2024-03-02T15:10:16;12.73;62.04
74178;DHT22;62540;48.456;-4.456;2024-03-02T15:12:42;12.78;62.52
74178;DHT22;62540;48.456;-4.456;2024-03-02T15:15:08;12.68;62.17
74178;DHT22;62540;48.456;-4.456;2024-03-02T15:17:36;12.61;62.24
74178;DHT22;62540;48.456;-4.456;2024-03-02T15:20:01;12.61;61.96
74178;DHT22;62540;48.456;-4.456;2024-03-02T15:22:27;12.49;61.48
74178;DHT22;62540;48.456;-4.456;2024-03-02T15:24:52;12.51;61.40